sensor_id;sensor_type;location;lat;lon;timestamp;pressure;altitude;pressure_sealevel;temperature;humidity
55315;BME280;41619;42.816;23.226;2023-02-08T00:00:23;97118.81;;;-5.39;64.62
55315;BME280;41619;42.816;23.226;2023-02-08T00:02:49;97116.56;;;-5.42;64.36
55315;BME280;41619;42.816;23.226;2023-02-08T00:05:15;97124.44;;;-5.47;64.38
55315;BME280;41619;42.816;23.226;2023-02-08T00:07:41;97113.84;;;-5.54;64.41
55315;BME280;41619;42.816;23.226;2023-02-08T00:10:07;97121.09;;;-5.61;64.49
55315;BME280;41619;42.816;23.226;2023-02-08T00:12:33;97134.66;;;-5.62;64.42
55315;BME280;41619;42.816;23.226;2023-02-08T00:14:58;97132.44;;;-5.65;64.66
55315;BME280;41619;42.816;23.226;2023-02-08T00:17:24;97136.69;;;-5.76;64.33
55315;BME280;41619;42.816;23.226;2023-02-08T00:19:49;97132.16;;;-5.94;64.23
55315;BME280;41619;42.816;23.226;2023-02-08T00:22:15;97138.22;;;-6.05;64.46
55315;BME280;41619;42.816;23.226;2023-02-08T00:24:40;97135.59;;;-6.12;64.21
55315;BME280;41619;42.816;23.226;2023-02-08T00:27:05;97141.56;;;-6.16;64.15
55315;BME280;41619;42.816;23.226;2023-02-08T00:29:31;97141.63;;;-6.23;64.77
55315;BME280;41619;42.816;23.226;2023-02-08T00:31:56;97144.16;;;-6.28;64.65
55315;BME280;41619;42.816;23.226;2023-02-08T00:34:21;97148.47;;;-6.33;64.72
55315;BME280;41619;42.816;23.226;2023-02-08T00:36:47;97148.31;;;-6.38;64.90
55315;BME280;41619;42.816;23.226;2023-02-08T00:39:12;97159.19;;;-6.40;64.99
55315;BME280;41619;42.816;23.226;2023-02-08T00:41:38;97151.84;;;-6.45;64.81
55315;BME280;41619;42.816;23.226;2023-02-08T00:44:03;97158.66;;;-6.49;65.02
55315;BME280;41619;42.816;23.226;2023-02-08T00:46:29;97164.59;;;-6.53;65.49
55315;BME280;41619;42.816;23.226;2023-02-08T00:48:54;97174.44;;;-6.54;65.40
55315;BME280;41619;42.816;23.226;2023-02-08T00:51:20;97167.69;;;-6.56;64.98
55315;BME280;41619;42.816;23.226;2023-02-08T00:53:45;97166.28;;;-6.59;65.41
55315;BME280;41619;42.816;23.226;2023-02-08T00:56:12;97174.50;;;-6.60;65.00
55315;BME280;41619;42.816;23.226;2023-02-08T00:58:37;97176.19;;;-6.66;65.14
55315;BME280;41619;42.816;23.226;2023-02-08T01:01:04;97172.56;;;-6.78;64.80
55315;BME280;41619;42.816;23.226;2023-02-08T01:03:35;97175.06;;;-6.90;64.64
55315;BME280;41619;42.816;23.226;2023-02-08T01:06:07;97184.94;;;-6.97;65.39
55315;BME280;41619;42.816;23.226;2023-02-08T01:08:32;97179.22;;;-7.00;64.96
55315;BME280;41619;42.816;23.226;2023-02-08T01:11:15;97184.16;;;-7.04;65.28
55315;BME280;41619;42.816;23.226;2023-02-08T01:13:43;97188.47;;;-7.03;65.42
55315;BME280;41619;42.816;23.226;2023-02-08T01:16:17;97188.69;;;-7.05;65.58
55315;BME280;41619;42.816;23.226;2023-02-08T01:18:44;97184.38;;;-7.06;65.36
55315;BME280;41619;42.816;23.226;2023-02-08T01:21:15;97191.13;;;-7.03;65.78
55315;BME280;41619;42.816;23.226;2023-02-08T01:23:41;97194.38;;;-7.01;65.88
55315;BME280;41619;42.816;23.226;2023-02-08T01:26:08;97193.16;;;-6.98;65.73
55315;BME280;41619;42.816;23.226;2023-02-08T01:28:34;97184.72;;;-6.95;65.75
55315;BME280;41619;42.816;23.226;2023-02-08T01:31:07;97185.97;;;-6.98;65.53
55315;BME280;41619;42.816;23.226;2023-02-08T01:33:32;97182.72;;;-7.00;65.25
55315;BME280;41619;42.816;23.226;2023-02-08T01:35:58;97192.16;;;-7.04;65.41
55315;BME280;41619;42.816;23.226;2023-02-08T01:38:23;97191.13;;;-7.10;65.32
55315;BME280;41619;42.816;23.226;2023-02-08T01:40:49;97194.00;;;-7.11;65.42
55315;BME280;41619;42.816;23.226;2023-02-08T01:43:24;97188.91;;;-7.13;65.25
55315;BME280;41619;42.816;23.226;2023-02-08T01:45:51;97187.06;;;-7.12;65.24
55315;BME280;41619;42.816;23.226;2023-02-08T01:48:37;97185.81;;;-7.10;65.55
55315;BME280;41619;42.816;23.226;2023-02-08T01:51:14;97192.97;;;-7.04;65.57
55315;BME280;41619;42.816;23.226;2023-02-08T01:53:42;97198.25;;;-6.97;65.22
55315;BME280;41619;42.816;23.226;2023-02-08T01:56:14;97188.00;;;-6.93;65.75
55315;BME280;41619;42.816;23.226;2023-02-08T01:58:48;97189.19;;;-6.89;65.63
55315;BME280;41619;42.816;23.226;2023-02-08T02:01:16;97197.38;;;-6.84;65.29
55315;BME280;41619;42.816;23.226;2023-02-08T02:03:42;97195.53;;;-6.84;65.85
55315;BME280;41619;42.816;23.226;2023-02-08T02:06:14;97195.69;;;-6.79;65.90
55315;BME280;41619;42.816;23.226;2023-02-08T02:09:19;97197.28;;;-6.71;65.68
55315;BME280;41619;42.816;23.226;2023-02-08T02:11:43;97199.34;;;-6.66;65.71
55315;BME280;41619;42.816;23.226;2023-02-08T02:14:08;97203.19;;;-6.62;65.84
55315;BME280;41619;42.816;23.226;2023-02-08T02:16:34;97202.53;;;-6.58;65.86
55315;BME280;41619;42.816;23.226;2023-02-08T02:19:00;97208.66;;;-6.51;65.89
55315;BME280;41619;42.816;23.226;2023-02-08T02:21:40;97215.78;;;-6.45;65.72
55315;BME280;41619;42.816;23.226;2023-02-08T02:24:38;97221.28;;;-6.39;65.58
55315;BME280;41619;42.816;23.226;2023-02-08T02:27:26;97220.09;;;-6.44;65.50
55315;BME280;41619;42.816;23.226;2023-02-08T02:40:59;97234.78;;;-6.34;65.35
55315;BME280;41619;42.816;23.226;2023-02-08T02:43:45;97232.31;;;-6.36;65.66
55315;BME280;41619;42.816;23.226;2023-02-08T02:46:26;97237.88;;;-6.37;65.48
55315;BME280;41619;42.816;23.226;2023-02-08T02:49:07;97239.50;;;-6.36;65.99
55315;BME280;41619;42.816;23.226;2023-02-08T02:52:02;97234.78;;;-6.34;65.95
55315;BME280;41619;42.816;23.226;2023-02-08T02:54:44;97240.50;;;-6.31;65.86
55315;BME280;41619;42.816;23.226;2023-02-08T02:57:16;97240.06;;;-6.28;65.68
55315;BME280;41619;42.816;23.226;2023-02-08T02:59:44;97241.91;;;-6.28;65.97
55315;BME280;41619;42.816;23.226;2023-02-08T03:02:11;97239.47;;;-6.30;65.80
55315;BME280;41619;42.816;23.226;2023-02-08T03:07:15;97238.00;;;-6.26;66.00
55315;BME280;41619;42.816;23.226;2023-02-08T03:26:32;97247.00;;;-6.58;66.52
55315;BME280;41619;42.816;23.226;2023-02-08T03:31:49;97250.53;;;-6.64;66.20
55315;BME280;41619;42.816;23.226;2023-02-08T03:34:29;97253.41;;;-6.66;66.43
55315;BME280;41619;42.816;23.226;2023-02-08T03:37:04;97252.38;;;-6.65;66.54
55315;BME280;41619;42.816;23.226;2023-02-08T03:39:33;97251.34;;;-6.64;67.21
55315;BME280;41619;42.816;23.226;2023-02-08T03:42:04;97247.44;;;-6.61;67.27
55315;BME280;41619;42.816;23.226;2023-02-08T03:44:35;97260.31;;;-6.58;67.06
55315;BME280;41619;42.816;23.226;2023-02-08T03:47:13;97259.06;;;-6.56;67.10
55315;BME280;41619;42.816;23.226;2023-02-08T03:49:41;97259.47;;;-6.52;67.42
55315;BME280;41619;42.816;23.226;2023-02-08T03:52:09;97257.63;;;-6.52;67.24
55315;BME280;41619;42.816;23.226;2023-02-08T03:54:50;97250.66;;;-6.53;67.14
55315;BME280;41619;42.816;23.226;2023-02-08T03:57:20;97256.19;;;-6.54;66.89
55315;BME280;41619;42.816;23.226;2023-02-08T03:59:56;97255.81;;;-6.58;67.21
55315;BME280;41619;42.816;23.226;2023-02-08T04:02:25;97252.75;;;-6.61;67.50
55315;BME280;41619;42.816;23.226;2023-02-08T04:04:52;97248.09;;;-6.66;67.55
55315;BME280;41619;42.816;23.226;2023-02-08T04:07:18;97250.53;;;-6.71;67.82
55315;BME280;41619;42.816;23.226;2023-02-08T04:09:44;97250.16;;;-6.75;67.78
55315;BME280;41619;42.816;23.226;2023-02-08T04:12:10;97253.25;;;-6.78;67.77
55315;BME280;41619;42.816;23.226;2023-02-08T04:14:35;97253.25;;;-6.78;67.82
55315;BME280;41619;42.816;23.226;2023-02-08T04:17:01;97256.94;;;-6.79;68.00
55315;BME280;41619;42.816;23.226;2023-02-08T04:19:26;97269.88;;;-6.82;68.02
55315;BME280;41619;42.816;23.226;2023-02-08T04:21:52;97272.13;;;-6.86;68.08
55315;BME280;41619;42.816;23.226;2023-02-08T04:24:17;97261.06;;;-6.89;68.33
55315;BME280;41619;42.816;23.226;2023-02-08T04:26:43;97261.28;;;-6.91;68.29
55315;BME280;41619;42.816;23.226;2023-02-08T04:29:08;97267.03;;;-6.94;68.22
55315;BME280;41619;42.816;23.226;2023-02-08T04:31:33;97263.97;;;-6.97;68.19
55315;BME280;41619;42.816;23.226;2023-02-08T04:33:59;97270.75;;;-7.02;68.08
55315;BME280;41619;42.816;23.226;2023-02-08T04:36:24;97265.03;;;-7.05;68.34
55315;BME280;41619;42.816;23.226;2023-02-08T04:38:49;97259.50;;;-7.10;68.36
55315;BME280;41619;42.816;23.226;2023-02-08T04:41:15;97261.56;;;-7.12;68.28
55315;BME280;41619;42.816;23.226;2023-02-08T04:43:40;97260.34;;;-7.16;68.57
55315;BME280;41619;42.816;23.226;2023-02-08T04:46:06;97261.00;;;-7.21;68.68
55315;BME280;41619;42.816;23.226;2023-02-08T04:48:31;97271.03;;;-7.23;68.70
55315;BME280;41619;42.816;23.226;2023-02-08T04:50:57;97265.28;;;-7.26;68.67
55315;BME280;41619;42.816;23.226;2023-02-08T04:53:24;97274.72;;;-7.30;68.66
55315;BME280;41619;42.816;23.226;2023-02-08T04:55:49;97270.84;;;-7.35;68.41
55315;BME280;41619;42.816;23.226;2023-02-08T04:58:15;97286.41;;;-7.38;68.58
55315;BME280;41619;42.816;23.226;2023-02-08T05:00:41;97293.56;;;-7.39;68.26
55315;BME280;41619;42.816;23.226;2023-02-08T05:03:06;97290.28;;;-7.41;68.39
55315;BME280;41619;42.816;23.226;2023-02-08T05:05:31;97302.34;;;-7.45;68.10
55315;BME280;41619;42.816;23.226;2023-02-08T05:07:57;97296.22;;;-7.45;67.92
55315;BME280;41619;42.816;23.226;2023-02-08T05:10:23;97301.34;;;-7.50;68.27
55315;BME280;41619;42.816;23.226;2023-02-08T05:12:48;97315.88;;;-7.53;68.38
55315;BME280;41619;42.816;23.226;2023-02-08T05:15:14;97313.81;;;-7.51;67.98
55315;BME280;41619;42.816;23.226;2023-02-08T05:17:39;97311.38;;;-7.52;68.44
55315;BME280;41619;42.816;23.226;2023-02-08T05:20:05;97316.69;;;-7.52;68.33
55315;BME280;41619;42.816;23.226;2023-02-08T05:22:32;97321.41;;;-7.54;67.99
55315;BME280;41619;42.816;23.226;2023-02-08T05:24:57;97327.13;;;-7.57;68.10
55315;BME280;41619;42.816;23.226;2023-02-08T05:27:23;97323.84;;;-7.59;68.28
55315;BME280;41619;42.816;23.226;2023-02-08T05:29:49;97334.69;;;-7.61;68.08
55315;BME280;41619;42.816;23.226;2023-02-08T05:32:14;97330.41;;;-7.75;67.82
55315;BME280;41619;42.816;23.226;2023-02-08T05:34:39;97332.44;;;-7.97;67.85
55315;BME280;41619;42.816;23.226;2023-02-08T05:37:05;97327.91;;;-8.10;68.01
55315;BME280;41619;42.816;23.226;2023-02-08T05:39:30;97342.41;;;-8.12;68.10
55315;BME280;41619;42.816;23.226;2023-02-08T05:41:56;97343.03;;;-8.10;68.48
55315;BME280;41619;42.816;23.226;2023-02-08T05:44:21;97341.59;;;-8.06;68.53
55315;BME280;41619;42.816;23.226;2023-02-08T05:46:46;97353.25;;;-8.01;68.49
55315;BME280;41619;42.816;23.226;2023-02-08T05:49:12;97357.94;;;-8.03;68.10
55315;BME280;41619;42.816;23.226;2023-02-08T05:51:37;97350.59;;;-8.01;68.27
55315;BME280;41619;42.816;23.226;2023-02-08T05:54:03;97355.91;;;-8.01;68.08
55315;BME280;41619;42.816;23.226;2023-02-08T05:56:28;97360.03;;;-7.98;68.26
55315;BME280;41619;42.816;23.226;2023-02-08T05:58:54;97360.22;;;-7.86;68.09
55315;BME280;41619;42.816;23.226;2023-02-08T06:01:20;97364.13;;;-7.76;67.81
55315;BME280;41619;42.816;23.226;2023-02-08T06:03:46;97349.19;;;-7.64;68.13
55315;BME280;41619;42.816;23.226;2023-02-08T06:06:11;97350.22;;;-7.51;67.75
55315;BME280;41619;42.816;23.226;2023-02-08T06:08:38;97355.75;;;-7.40;68.14
55315;BME280;41619;42.816;23.226;2023-02-08T06:11:04;97354.69;;;-7.25;68.26
55315;BME280;41619;42.816;23.226;2023-02-08T06:13:30;97357.34;;;-7.12;68.02
55315;BME280;41619;42.816;23.226;2023-02-08T06:15:56;97353.88;;;-6.99;68.09
55315;BME280;41619;42.816;23.226;2023-02-08T06:18:21;97353.84;;;-6.86;67.52
55315;BME280;41619;42.816;23.226;2023-02-08T06:20:47;97363.03;;;-6.76;67.35
55315;BME280;41619;42.816;23.226;2023-02-08T06:23:12;97365.66;;;-6.62;67.38
55315;BME280;41619;42.816;23.226;2023-02-08T06:25:38;97379.16;;;-6.51;67.05
55315;BME280;41619;42.816;23.226;2023-02-08T06:28:04;97380.31;;;-6.40;66.94
55315;BME280;41619;42.816;23.226;2023-02-08T06:30:29;97377.44;;;-6.32;66.47
55315;BME280;41619;42.816;23.226;2023-02-08T06:32:55;97382.06;;;-6.21;66.81
55315;BME280;41619;42.816;23.226;2023-02-08T06:35:20;97382.63;;;-6.05;66.52
55315;BME280;41619;42.816;23.226;2023-02-08T06:37:46;97379.09;;;-5.93;66.36
55315;BME280;41619;42.816;23.226;2023-02-08T06:40:11;97384.50;;;-5.81;66.33
55315;BME280;41619;42.816;23.226;2023-02-08T06:42:36;97390.56;;;-5.67;66.11
55315;BME280;41619;42.816;23.226;2023-02-08T06:45:02;97387.22;;;-5.56;65.73
55315;BME280;41619;42.816;23.226;2023-02-08T06:47:28;97391.41;;;-5.42;65.80
55315;BME280;41619;42.816;23.226;2023-02-08T06:49:54;97388.59;;;-5.22;65.56
55315;BME280;41619;42.816;23.226;2023-02-08T06:52:20;97379.59;;;-5.03;65.52
55315;BME280;41619;42.816;23.226;2023-02-08T06:54:45;97382.75;;;-4.69;65.33
55315;BME280;41619;42.816;23.226;2023-02-08T06:57:11;97377.34;;;-4.08;66.34
55315;BME280;41619;42.816;23.226;2023-02-08T06:59:37;97371.25;;;-2.78;65.99
55315;BME280;41619;42.816;23.226;2023-02-08T07:02:03;97367.53;;;-1.57;64.00
55315;BME280;41619;42.816;23.226;2023-02-08T07:04:29;97367.66;;;-0.46;63.11
55315;BME280;41619;42.816;23.226;2023-02-08T07:06:55;97368.38;;;0.91;61.36
55315;BME280;41619;42.816;23.226;2023-02-08T07:09:20;97365.72;;;2.43;59.73
55315;BME280;41619;42.816;23.226;2023-02-08T07:11:46;97365.75;;;3.75;57.35
55315;BME280;41619;42.816;23.226;2023-02-08T07:14:12;97359.09;;;5.05;55.11
55315;BME280;41619;42.816;23.226;2023-02-08T07:16:38;97361.97;;;6.49;51.99
55315;BME280;41619;42.816;23.226;2023-02-08T07:19:04;97361.38;;;7.73;49.25
55315;BME280;41619;42.816;23.226;2023-02-08T07:21:30;97366.28;;;8.59;47.09
55315;BME280;41619;42.816;23.226;2023-02-08T07:23:55;97373.28;;;9.46;45.90
55315;BME280;41619;42.816;23.226;2023-02-08T07:26:21;97369.63;;;10.43;44.26
55315;BME280;41619;42.816;23.226;2023-02-08T07:28:46;97376.00;;;11.13;42.93
55315;BME280;41619;42.816;23.226;2023-02-08T07:31:13;97374.63;;;10.41;41.79
55315;BME280;41619;42.816;23.226;2023-02-08T07:33:40;97380.03;;;9.03;43.15
55315;BME280;41619;42.816;23.226;2023-02-08T07:36:06;97382.47;;;8.41;44.32
55315;BME280;41619;42.816;23.226;2023-02-08T07:38:32;97383.66;;;8.22;42.04
55315;BME280;41619;42.816;23.226;2023-02-08T07:41:08;97380.38;;;6.57;43.37
55315;BME280;41619;42.816;23.226;2023-02-08T07:43:36;97378.91;;;5.98;45.19
55315;BME280;41619;42.816;23.226;2023-02-08T07:46:10;97379.06;;;6.92;42.95
55315;BME280;41619;42.816;23.226;2023-02-08T07:48:36;97392.22;;;7.87;41.68
55315;BME280;41619;42.816;23.226;2023-02-08T07:51:02;97385.06;;;8.05;39.97
55315;BME280;41619;42.816;23.226;2023-02-08T07:53:28;97385.41;;;8.59;39.82
55315;BME280;41619;42.816;23.226;2023-02-08T07:55:54;97388.44;;;9.52;38.81
55315;BME280;41619;42.816;23.226;2023-02-08T07:58:19;97385.09;;;10.48;36.92
55315;BME280;41619;42.816;23.226;2023-02-08T08:00:44;97381.94;;;11.75;35.40
55315;BME280;41619;42.816;23.226;2023-02-08T08:03:10;97385.34;;;13.16;33.85
55315;BME280;41619;42.816;23.226;2023-02-08T08:05:35;97371.13;;;13.89;32.31
55315;BME280;41619;42.816;23.226;2023-02-08T08:08:01;97371.50;;;14.69;31.59
55315;BME280;41619;42.816;23.226;2023-02-08T08:10:26;97367.66;;;15.38;30.82
55315;BME280;41619;42.816;23.226;2023-02-08T08:12:52;97364.38;;;15.61;29.94
55315;BME280;41619;42.816;23.226;2023-02-08T08:15:17;97367.28;;;15.52;29.33
55315;BME280;41619;42.816;23.226;2023-02-08T08:17:43;97361.69;;;15.77;30.69
55315;BME280;41619;42.816;23.226;2023-02-08T08:20:09;97360.28;;;15.98;31.47
55315;BME280;41619;42.816;23.226;2023-02-08T08:22:35;97362.50;;;15.93;32.20
55315;BME280;41619;42.816;23.226;2023-02-08T08:25:01;97368.16;;;16.12;32.43
55315;BME280;41619;42.816;23.226;2023-02-08T08:27:26;97367.97;;;16.52;32.01
55315;BME280;41619;42.816;23.226;2023-02-08T08:29:51;97377.44;;;16.99;31.37
55315;BME280;41619;42.816;23.226;2023-02-08T08:32:17;97369.72;;;17.08;31.38
55315;BME280;41619;42.816;23.226;2023-02-08T08:34:42;97373.69;;;16.91;31.16
55315;BME280;41619;42.816;23.226;2023-02-08T08:37:08;97373.38;;;17.12;31.00
55315;BME280;41619;42.816;23.226;2023-02-08T08:39:33;97366.91;;;17.23;30.71
55315;BME280;41619;42.816;23.226;2023-02-08T08:41:59;97363.84;;;17.29;30.73
55315;BME280;41619;42.816;23.226;2023-02-08T08:44:25;97373.41;;;17.31;30.25
55315;BME280;41619;42.816;23.226;2023-02-08T08:46:54;97369.19;;;17.56;29.49
55315;BME280;41619;42.816;23.226;2023-02-08T08:49:20;97361.94;;;17.87;29.21
55315;BME280;41619;42.816;23.226;2023-02-08T08:51:46;97352.88;;;17.90;28.73
55315;BME280;41619;42.816;23.226;2023-02-08T08:54:11;97362.31;;;18.08;28.12
55315;BME280;41619;42.816;23.226;2023-02-08T08:56:37;97362.28;;;18.73;26.68
55315;BME280;41619;42.816;23.226;2023-02-08T08:59:02;97369.97;;;18.61;25.98
55315;BME280;41619;42.816;23.226;2023-02-08T09:01:27;97366.97;;;18.24;24.78
55315;BME280;41619;42.816;23.226;2023-02-08T09:03:53;97364.97;;;16.73;24.87
55315;BME280;41619;42.816;23.226;2023-02-08T09:06:18;97358.75;;;15.17;25.50
55315;BME280;41619;42.816;23.226;2023-02-08T09:08:43;97375.22;;;13.08;26.63
55315;BME280;41619;42.816;23.226;2023-02-08T09:11:11;97373.59;;;11.37;28.17
55315;BME280;41619;42.816;23.226;2023-02-08T09:13:37;97378.25;;;9.97;29.17
55315;BME280;41619;42.816;23.226;2023-02-08T09:16:08;97383.84;;;8.80;28.95
55315;BME280;41619;42.816;23.226;2023-02-08T09:18:35;97381.13;;;7.51;30.48
55315;BME280;41619;42.816;23.226;2023-02-08T09:21:29;97390.44;;;6.56;31.46
55315;BME280;41619;42.816;23.226;2023-02-08T09:23:55;97392.69;;;5.77;31.69
55315;BME280;41619;42.816;23.226;2023-02-08T09:26:21;97390.38;;;5.32;32.13
55315;BME280;41619;42.816;23.226;2023-02-08T09:28:46;97392.03;;;4.94;33.05
55315;BME280;41619;42.816;23.226;2023-02-08T09:31:18;97393.97;;;4.83;33.14
55315;BME280;41619;42.816;23.226;2023-02-08T09:33:44;97395.19;;;4.67;33.12
55315;BME280;41619;42.816;23.226;2023-02-08T09:36:10;97398.59;;;4.33;33.34
55315;BME280;41619;42.816;23.226;2023-02-08T09:38:36;97396.84;;;3.93;33.68
55315;BME280;41619;42.816;23.226;2023-02-08T09:44:08;97401.50;;;3.11;34.99
55315;BME280;41619;42.816;23.226;2023-02-08T09:46:37;97397.72;;;2.82;34.65
55315;BME280;41619;42.816;23.226;2023-02-08T09:49:10;97392.84;;;2.89;35.24
55315;BME280;41619;42.816;23.226;2023-02-08T09:51:50;97389.34;;;2.98;35.29
55315;BME280;41619;42.816;23.226;2023-02-08T09:54:22;97396.09;;;3.11;35.85
55315;BME280;41619;42.816;23.226;2023-02-08T09:56:51;97386.91;;;2.92;35.98
55315;BME280;41619;42.816;23.226;2023-02-08T09:59:25;97390.16;;;3.04;36.39
55315;BME280;41619;42.816;23.226;2023-02-08T10:01:57;97382.31;;;3.23;35.66
55315;BME280;41619;42.816;23.226;2023-02-08T10:04:43;97379.06;;;3.26;35.20
55315;BME280;41619;42.816;23.226;2023-02-08T10:07:15;97376.59;;;3.50;35.83
55315;BME280;41619;42.816;23.226;2023-02-08T10:09:41;97365.75;;;4.40;37.35
